sensor_id;sensor_type;location;lat;lon;timestamp;P1;durP1;ratioP1;P2;durP2;ratioP2
20144;SDS011;10233;50.814;6.590;2023-07-31T00:01:14;3.67;;;1.77;;
20144;SDS011;10233;50.814;6.590;2023-07-31T00:02:15;3.85;;;1.95;;
20144;SDS011;10233;50.814;6.590;2023-07-31T00:03:15;4.43;;;1.90;;
20144;SDS011;10233;50.814;6.590;2023-07-31T00:04:16;4.43;;;1.73;;
20144;SDS011;10233;50.814;6.590;2023-07-31T00:05:16;4.80;;;1.85;;
20144;SDS011;10233;50.814;6.590;2023-07-31T00:06:16;3.53;;;1.90;;
20144;SDS011;10233;50.814;6.590;2023-07-31T00:07:17;4.85;;;1.80;;
20144;SDS011;10233;50.814;6.590;2023-07-31T00:08:18;5.87;;;2.00;;
20144;SDS011;10233;50.814;6.590;2023-07-31T00:09:18;6.60;;;1.70;;
20144;SDS011;10233;50.814;6.590;2023-07-31T00:10:19;4.60;;;1.63;;
20144;SDS011;10233;50.814;6.590;2023-07-31T00:11:19;5.97;;;2.13;;
20144;SDS011;10233;50.814;6.590;2023-07-31T00:12:20;3.75;;;1.80;;
20144;SDS011;10233;50.814;6.590;2023-07-31T00:13:20;3.73;;;1.80;;
20144;SDS011;10233;50.814;6.590;2023-07-31T00:14:21;5.50;;;1.90;;
20144;SDS011;10233;50.814;6.590;2023-07-31T00:15:21;4.37;;;1.73;;
20144;SDS011;10233;50.814;6.590;2023-07-31T00:16:22;3.72;;;1.75;;
20144;SDS011;10233;50.814;6.590;2023-07-31T00:17:22;3.83;;;2.00;;
20144;SDS011;10233;50.814;6.590;2023-07-31T00:18:23;4.50;;;1.63;;
20144;SDS011;10233;50.814;6.590;2023-07-31T00:19:23;3.47;;;1.70;;
20144;SDS011;10233;50.814;6.590;2023-07-31T00:20:24;4.83;;;1.70;;
20144;SDS011;10233;50.814;6.590;2023-07-31T00:21:24;5.40;;;1.92;;
20144;SDS011;10233;50.814;6.590;2023-07-31T00:22:25;3.97;;;1.63;;
20144;SDS011;10233;50.814;6.590;2023-07-31T00:23:25;4.30;;;1.95;;
20144;SDS011;10233;50.814;6.590;2023-07-31T00:24:26;6.63;;;2.27;;
20144;SDS011;10233;50.814;6.590;2023-07-31T00:25:26;3.80;;;1.70;;
20144;SDS011;10233;50.814;6.590;2023-07-31T00:26:27;4.28;;;1.90;;
20144;SDS011;10233;50.814;6.590;2023-07-31T00:27:27;5.33;;;2.10;;
20144;SDS011;10233;50.814;6.590;2023-07-31T00:28:27;4.60;;;1.73;;
20144;SDS011;10233;50.814;6.590;2023-07-31T00:29:28;7.18;;;1.95;;
20144;SDS011;10233;50.814;6.590;2023-07-31T00:30:31;5.40;;;1.93;;
20144;SDS011;10233;50.814;6.590;2023-07-31T00:31:32;4.03;;;1.95;;
20144;SDS011;10233;50.814;6.590;2023-07-31T00:32:32;4.28;;;1.80;;
20144;SDS011;10233;50.814;6.590;2023-07-31T00:33:34;4.25;;;1.92;;
20144;SDS011;10233;50.814;6.590;2023-07-31T00:34:37;4.03;;;1.80;;
20144;SDS011;10233;50.814;6.590;2023-07-31T00:35:37;5.18;;;2.00;;
20144;SDS011;10233;50.814;6.590;2023-07-31T00:36:38;4.10;;;1.80;;
20144;SDS011;10233;50.814;6.590;2023-07-31T00:37:38;5.30;;;1.77;;
20144;SDS011;10233;50.814;6.590;2023-07-31T00:38:39;4.53;;;1.85;;
20144;SDS011;10233;50.814;6.590;2023-07-31T00:39:40;7.70;;;1.83;;
20144;SDS011;10233;50.814;6.590;2023-07-31T00:40:41;6.40;;;2.10;;
20144;SDS011;10233;50.814;6.590;2023-07-31T00:41:41;3.92;;;1.88;;
20144;SDS011;10233;50.814;6.590;2023-07-31T00:42:42;5.00;;;1.93;;
20144;SDS011;10233;50.814;6.590;2023-07-31T00:43:42;4.85;;;2.28;;
20144;SDS011;10233;50.814;6.590;2023-07-31T00:44:43;3.30;;;1.83;;
20144;SDS011;10233;50.814;6.590;2023-07-31T00:45:43;5.60;;;1.60;;
20144;SDS011;10233;50.814;6.590;2023-07-31T00:46:45;4.07;;;1.77;;
20144;SDS011;10233;50.814;6.590;2023-07-31T00:47:45;3.72;;;1.77;;
20144;SDS011;10233;50.814;6.590;2023-07-31T00:48:46;4.10;;;1.93;;
20144;SDS011;10233;50.814;6.590;2023-07-31T00:49:47;3.55;;;1.73;;
20144;SDS011;10233;50.814;6.590;2023-07-31T00:50:48;3.05;;;1.73;;
20144;SDS011;10233;50.814;6.590;2023-07-31T00:51:49;4.77;;;1.80;;
20144;SDS011;10233;50.814;6.590;2023-07-31T00:52:49;3.25;;;1.63;;
20144;SDS011;10233;50.814;6.590;2023-07-31T00:53:51;4.55;;;1.60;;
20144;SDS011;10233;50.814;6.590;2023-07-31T00:54:54;4.43;;;1.70;;
20144;SDS011;10233;50.814;6.590;2023-07-31T00:55:54;6.75;;;2.03;;
20144;SDS011;10233;50.814;6.590;2023-07-31T00:56:55;5.37;;;1.73;;
20144;SDS011;10233;50.814;6.590;2023-07-31T00:57:56;4.28;;;1.63;;
20144;SDS011;10233;50.814;6.590;2023-07-31T00:58:57;4.45;;;1.75;;
20144;SDS011;10233;50.814;6.590;2023-07-31T00:59:57;4.83;;;1.80;;
20144;SDS011;10233;50.814;6.590;2023-07-31T01:00:58;3.20;;;1.85;;
20144;SDS011;10233;50.814;6.590;2023-07-31T01:01:59;5.20;;;1.95;;
20144;SDS011;10233;50.814;6.590;2023-07-31T01:03:00;4.00;;;2.10;;
20144;SDS011;10233;50.814;6.590;2023-07-31T01:04:00;4.10;;;1.90;;
20144;SDS011;10233;50.814;6.590;2023-07-31T01:05:02;3.75;;;1.83;;
20144;SDS011;10233;50.814;6.590;2023-07-31T01:06:47;3.60;;;2.10;;
20144;SDS011;10233;50.814;6.590;2023-07-31T01:10:07;5.70;;;1.90;;
20144;SDS011;10233;50.814;6.590;2023-07-31T01:11:16;4.63;;;1.90;;
20144;SDS011;10233;50.814;6.590;2023-07-31T01:12:20;5.28;;;1.52;;
20144;SDS011;10233;50.814;6.590;2023-07-31T01:13:20;5.68;;;1.90;;
20144;SDS011;10233;50.814;6.590;2023-07-31T01:14:21;5.32;;;1.63;;
20144;SDS011;10233;50.814;6.590;2023-07-31T01:15:22;4.18;;;1.73;;
20144;SDS011;10233;50.814;6.590;2023-07-31T01:16:23;4.23;;;1.90;;
20144;SDS011;10233;50.814;6.590;2023-07-31T01:17:25;4.45;;;1.92;;
20144;SDS011;10233;50.814;6.590;2023-07-31T01:18:25;4.20;;;1.80;;
20144;SDS011;10233;50.814;6.590;2023-07-31T01:19:26;3.35;;;1.60;;
20144;SDS011;10233;50.814;6.590;2023-07-31T01:20:27;5.70;;;1.80;;
20144;SDS011;10233;50.814;6.590;2023-07-31T01:24:36;3.53;;;1.88;;
20144;SDS011;10233;50.814;6.590;2023-07-31T01:27:12;4.47;;;2.00;;
20144;SDS011;10233;50.814;6.590;2023-07-31T01:28:19;5.18;;;2.00;;
20144;SDS011;10233;50.814;6.590;2023-07-31T01:30:08;6.90;;;1.90;;
20144;SDS011;10233;50.814;6.590;2023-07-31T01:30:53;5.72;;;2.00;;
20144;SDS011;10233;50.814;6.590;2023-07-31T01:31:58;3.45;;;1.80;;
20144;SDS011;10233;50.814;6.590;2023-07-31T01:33:02;3.65;;;1.67;;
20144;SDS011;10233;50.814;6.590;2023-07-31T01:34:08;4.63;;;1.90;;
20144;SDS011;10233;50.814;6.590;2023-07-31T01:35:10;4.20;;;2.30;;
20144;SDS011;10233;50.814;6.590;2023-07-31T01:36:11;5.20;;;1.90;;
20144;SDS011;10233;50.814;6.590;2023-07-31T01:37:11;4.88;;;2.10;;
20144;SDS011;10233;50.814;6.590;2023-07-31T01:38:12;6.17;;;2.10;;
20144;SDS011;10233;50.814;6.590;2023-07-31T01:39:12;3.92;;;1.92;;
20144;SDS011;10233;50.814;6.590;2023-07-31T01:40:13;4.60;;;2.00;;
20144;SDS011;10233;50.814;6.590;2023-07-31T01:41:13;4.50;;;1.97;;
20144;SDS011;10233;50.814;6.590;2023-07-31T01:42:16;4.72;;;1.90;;
20144;SDS011;10233;50.814;6.590;2023-07-31T01:43:17;5.90;;;2.05;;
20144;SDS011;10233;50.814;6.590;2023-07-31T01:44:18;5.55;;;2.17;;
20144;SDS011;10233;50.814;6.590;2023-07-31T01:45:18;4.53;;;1.90;;
20144;SDS011;10233;50.814;6.590;2023-07-31T01:46:20;4.43;;;2.05;;
20144;SDS011;10233;50.814;6.590;2023-07-31T01:47:20;4.30;;;2.20;;
20144;SDS011;10233;50.814;6.590;2023-07-31T01:48:21;5.03;;;2.20;;
20144;SDS011;10233;50.814;6.590;2023-07-31T01:49:21;5.78;;;1.98;;
20144;SDS011;10233;50.814;6.590;2023-07-31T01:50:22;6.87;;;2.23;;
20144;SDS011;10233;50.814;6.590;2023-07-31T01:51:22;7.57;;;2.03;;
20144;SDS011;10233;50.814;6.590;2023-07-31T01:52:23;4.23;;;2.10;;
20144;SDS011;10233;50.814;6.590;2023-07-31T01:53:23;6.43;;;1.90;;
20144;SDS011;10233;50.814;6.590;2023-07-31T01:54:24;4.43;;;2.00;;
20144;SDS011;10233;50.814;6.590;2023-07-31T01:55:24;6.03;;;2.20;;
20144;SDS011;10233;50.814;6.590;2023-07-31T01:56:25;4.80;;;1.88;;
20144;SDS011;10233;50.814;6.590;2023-07-31T01:57:25;5.88;;;2.17;;
20144;SDS011;10233;50.814;6.590;2023-07-31T01:58:26;8.10;;;2.33;;
20144;SDS011;10233;50.814;6.590;2023-07-31T01:59:26;4.20;;;2.10;;
20144;SDS011;10233;50.814;6.590;2023-07-31T02:00:27;6.37;;;2.13;;
20144;SDS011;10233;50.814;6.590;2023-07-31T02:01:27;6.05;;;2.00;;
20144;SDS011;10233;50.814;6.590;2023-07-31T02:02:28;6.87;;;2.40;;
20144;SDS011;10233;50.814;6.590;2023-07-31T02:03:28;5.20;;;2.50;;
20144;SDS011;10233;50.814;6.590;2023-07-31T02:04:29;5.97;;;2.30;;
20144;SDS011;10233;50.814;6.590;2023-07-31T02:05:29;6.45;;;2.25;;
20144;SDS011;10233;50.814;6.590;2023-07-31T02:06:30;6.57;;;2.05;;
20144;SDS011;10233;50.814;6.590;2023-07-31T02:07:30;5.53;;;2.07;;
20144;SDS011;10233;50.814;6.590;2023-07-31T02:08:31;6.53;;;2.40;;
20144;SDS011;10233;50.814;6.590;2023-07-31T02:09:31;6.97;;;2.10;;
20144;SDS011;10233;50.814;6.590;2023-07-31T02:10:33;4.60;;;2.42;;
20144;SDS011;10233;50.814;6.590;2023-07-31T02:11:33;5.60;;;2.27;;
20144;SDS011;10233;50.814;6.590;2023-07-31T02:12:34;6.33;;;2.37;;
20144;SDS011;10233;50.814;6.590;2023-07-31T02:13:35;5.22;;;2.20;;
20144;SDS011;10233;50.814;6.590;2023-07-31T02:14:36;7.50;;;2.67;;
20144;SDS011;10233;50.814;6.590;2023-07-31T02:15:36;4.50;;;2.05;;
20144;SDS011;10233;50.814;6.590;2023-07-31T02:16:37;6.27;;;2.00;;
20144;SDS011;10233;50.814;6.590;2023-07-31T02:17:37;6.93;;;2.20;;
20144;SDS011;10233;50.814;6.590;2023-07-31T02:18:38;4.68;;;1.73;;
20144;SDS011;10233;50.814;6.590;2023-07-31T02:19:38;5.80;;;2.10;;
20144;SDS011;10233;50.814;6.590;2023-07-31T02:20:39;5.22;;;2.20;;
20144;SDS011;10233;50.814;6.590;2023-07-31T02:21:39;4.47;;;2.03;;
20144;SDS011;10233;50.814;6.590;2023-07-31T02:22:40;4.78;;;2.20;;
20144;SDS011;10233;50.814;6.590;2023-07-31T02:23:41;11.05;;;2.50;;
20144;SDS011;10233;50.814;6.590;2023-07-31T02:24:41;7.87;;;2.20;;
20144;SDS011;10233;50.814;6.590;2023-07-31T02:25:42;4.43;;;2.03;;
20144;SDS011;10233;50.814;6.590;2023-07-31T02:26:42;4.07;;;1.90;;
20144;SDS011;10233;50.814;6.590;2023-07-31T02:27:43;7.23;;;2.43;;
20144;SDS011;10233;50.814;6.590;2023-07-31T02:28:43;6.53;;;2.22;;
20144;SDS011;10233;50.814;6.590;2023-07-31T02:29:45;5.20;;;2.40;;
20144;SDS011;10233;50.814;6.590;2023-07-31T02:30:46;6.72;;;2.28;;
20144;SDS011;10233;50.814;6.590;2023-07-31T02:31:47;4.27;;;2.33;;
20144;SDS011;10233;50.814;6.590;2023-07-31T02:32:47;5.90;;;2.10;;
20144;SDS011;10233;50.814;6.590;2023-07-31T02:33:48;7.10;;;2.30;;
20144;SDS011;10233;50.814;6.590;2023-07-31T02:34:48;4.97;;;2.17;;
20144;SDS011;10233;50.814;6.590;2023-07-31T02:35:49;5.10;;;2.40;;
20144;SDS011;10233;50.814;6.590;2023-07-31T02:36:49;5.60;;;2.40;;
20144;SDS011;10233;50.814;6.590;2023-07-31T02:37:49;5.15;;;2.10;;
20144;SDS011;10233;50.814;6.590;2023-07-31T02:38:50;5.43;;;2.33;;
20144;SDS011;10233;50.814;6.590;2023-07-31T02:39:50;6.03;;;2.20;;
20144;SDS011;10233;50.814;6.590;2023-07-31T02:40:51;12.20;;;2.35;;
20144;SDS011;10233;50.814;6.590;2023-07-31T02:41:51;6.30;;;2.30;;
20144;SDS011;10233;50.814;6.590;2023-07-31T02:42:52;5.37;;;2.50;;
20144;SDS011;10233;50.814;6.590;2023-07-31T02:43:52;7.93;;;1.95;;
20144;SDS011;10233;50.814;6.590;2023-07-31T02:44:54;5.43;;;2.03;;
20144;SDS011;10233;50.814;6.590;2023-07-31T02:45:55;6.45;;;2.20;;
20144;SDS011;10233;50.814;6.590;2023-07-31T02:46:57;5.65;;;2.20;;
20144;SDS011;10233;50.814;6.590;2023-07-31T02:47:58;6.73;;;2.50;;
20144;SDS011;10233;50.814;6.590;2023-07-31T02:48:58;5.53;;;2.30;;
20144;SDS011;10233;50.814;6.590;2023-07-31T02:49:59;6.57;;;2.33;;
20144;SDS011;10233;50.814;6.590;2023-07-31T02:51:00;4.85;;;2.13;;
20144;SDS011;10233;50.814;6.590;2023-07-31T02:52:00;6.37;;;2.30;;
20144;SDS011;10233;50.814;6.590;2023-07-31T02:53:01;4.80;;;2.20;;
20144;SDS011;10233;50.814;6.590;2023-07-31T02:54:01;4.90;;;1.90;;
20144;SDS011;10233;50.814;6.590;2023-07-31T02:55:02;5.47;;;2.30;;
20144;SDS011;10233;50.814;6.590;2023-07-31T02:56:02;6.85;;;2.30;;
20144;SDS011;10233;50.814;6.590;2023-07-31T02:57:03;6.80;;;2.57;;
20144;SDS011;10233;50.814;6.590;2023-07-31T02:58:04;4.32;;;2.15;;
20144;SDS011;10233;50.814;6.590;2023-07-31T02:59:04;6.03;;;2.43;;
20144;SDS011;10233;50.814;6.590;2023-07-31T03:00:05;5.25;;;2.38;;
20144;SDS011;10233;50.814;6.590;2023-07-31T03:01:06;5.25;;;2.40;;
20144;SDS011;10233;50.814;6.590;2023-07-31T03:02:07;5.57;;;2.42;;
20144;SDS011;10233;50.814;6.590;2023-07-31T03:03:07;5.80;;;2.13;;
20144;SDS011;10233;50.814;6.590;2023-07-31T03:04:08;7.27;;;2.23;;
20144;SDS011;10233;50.814;6.590;2023-07-31T03:05:08;4.18;;;2.17;;
20144;SDS011;10233;50.814;6.590;2023-07-31T03:06:09;5.27;;;2.10;;
20144;SDS011;10233;50.814;6.590;2023-07-31T03:07:10;4.63;;;2.28;;
20144;SDS011;10233;50.814;6.590;2023-07-31T03:08:11;6.77;;;2.30;;
20144;SDS011;10233;50.814;6.590;2023-07-31T03:09:11;7.00;;;2.17;;
20144;SDS011;10233;50.814;6.590;2023-07-31T03:10:12;5.90;;;2.40;;
20144;SDS011;10233;50.814;6.590;2023-07-31T03:11:13;5.53;;;1.95;;
20144;SDS011;10233;50.814;6.590;2023-07-31T03:12:13;6.67;;;2.63;;
20144;SDS011;10233;50.814;6.590;2023-07-31T03:13:13;5.57;;;2.23;;
20144;SDS011;10233;50.814;6.590;2023-07-31T03:14:14;5.38;;;2.15;;
20144;SDS011;10233;50.814;6.590;2023-07-31T03:15:14;7.77;;;2.70;;
20144;SDS011;10233;50.814;6.590;2023-07-31T03:16:15;7.28;;;2.20;;
20144;SDS011;10233;50.814;6.590;2023-07-31T03:17:16;4.13;;;2.50;;
20144;SDS011;10233;50.814;6.590;2023-07-31T03:18:16;5.50;;;2.47;;
20144;SDS011;10233;50.814;6.590;2023-07-31T03:19:16;5.13;;;2.33;;
20144;SDS011;10233;50.814;6.590;2023-07-31T03:20:17;5.73;;;2.47;;
20144;SDS011;10233;50.814;6.590;2023-07-31T03:21:17;5.73;;;2.50;;
20144;SDS011;10233;50.814;6.590;2023-07-31T03:22:18;6.47;;;2.45;;
20144;SDS011;10233;50.814;6.590;2023-07-31T03:23:18;5.67;;;2.43;;
20144;SDS011;10233;50.814;6.590;2023-07-31T03:24:19;5.07;;;2.45;;
20144;SDS011;10233;50.814;6.590;2023-07-31T03:25:19;6.50;;;2.43;;
20144;SDS011;10233;50.814;6.590;2023-07-31T03:26:20;6.87;;;2.27;;
20144;SDS011;10233;50.814;6.590;2023-07-31T03:27:20;5.45;;;2.60;;
20144;SDS011;10233;50.814;6.590;2023-07-31T03:28:21;4.40;;;2.20;;
20144;SDS011;10233;50.814;6.590;2023-07-31T03:29:21;4.57;;;2.23;;
20144;SDS011;10233;50.814;6.590;2023-07-31T03:30:22;3.83;;;2.28;;
20144;SDS011;10233;50.814;6.590;2023-07-31T03:31:22;5.50;;;2.53;;
20144;SDS011;10233;50.814;6.590;2023-07-31T03:32:22;3.90;;;2.30;;
20144;SDS011;10233;50.814;6.590;2023-07-31T03:33:23;4.00;;;2.40;;
20144;SDS011;10233;50.814;6.590;2023-07-31T03:34:24;6.13;;;2.45;;
20144;SDS011;10233;50.814;6.590;2023-07-31T03:35:25;8.27;;;2.60;;
20144;SDS011;10233;50.814;6.590;2023-07-31T03:36:25;6.28;;;2.65;;
20144;SDS011;10233;50.814;6.590;2023-07-31T03:37:27;5.85;;;2.28;;
20144;SDS011;10233;50.814;6.590;2023-07-31T03:38:29;4.03;;;2.35;;
20144;SDS011;10233;50.814;6.590;2023-07-31T03:39:29;5.70;;;2.37;;
20144;SDS011;10233;50.814;6.590;2023-07-31T03:40:30;5.28;;;2.30;;
20144;SDS011;10233;50.814;6.590;2023-07-31T03:41:30;6.37;;;2.57;;
20144;SDS011;10233;50.814;6.590;2023-07-31T03:42:31;6.22;;;2.60;;
20144;SDS011;10233;50.814;6.590;2023-07-31T03:43:31;5.93;;;2.80;;
20144;SDS011;10233;50.814;6.590;2023-07-31T03:44:33;4.90;;;2.25;;
20144;SDS011;10233;50.814;6.590;2023-07-31T03:45:34;6.00;;;2.60;;
20144;SDS011;10233;50.814;6.590;2023-07-31T03:46:35;5.05;;;2.65;;
20144;SDS011;10233;50.814;6.590;2023-07-31T03:47:36;5.10;;;2.45;;
20144;SDS011;10233;50.814;6.590;2023-07-31T03:48:37;8.07;;;2.80;;
20144;SDS011;10233;50.814;6.590;2023-07-31T03:49:37;5.70;;;2.70;;
20144;SDS011;10233;50.814;6.590;2023-07-31T03:50:38;5.77;;;2.40;;
20144;SDS011;10233;50.814;6.590;2023-07-31T03:51:38;5.47;;;2.53;;
20144;SDS011;10233;50.814;6.590;2023-07-31T03:52:40;5.75;;;2.25;;
20144;SDS011;10233;50.814;6.590;2023-07-31T03:53:41;5.97;;;2.75;;
20144;SDS011;10233;50.814;6.590;2023-07-31T03:54:42;7.28;;;2.65;;
20144;SDS011;10233;50.814;6.590;2023-07-31T03:55:44;7.53;;;2.80;;
20144;SDS011;10233;50.814;6.590;2023-07-31T03:56:45;5.13;;;2.60;;
20144;SDS011;10233;50.814;6.590;2023-07-31T03:57:45;7.18;;;2.80;;
20144;SDS011;10233;50.814;6.590;2023-07-31T03:58:45;7.85;;;2.75;;
20144;SDS011;10233;50.814;6.590;2023-07-31T03:59:46;5.93;;;2.30;;
20144;SDS011;10233;50.814;6.590;2023-07-31T04:00:46;5.40;;;2.70;;
20144;SDS011;10233;50.814;6.590;2023-07-31T04:01:47;5.60;;;2.40;;
20144;SDS011;10233;50.814;6.590;2023-07-31T04:02:47;5.13;;;2.30;;
20144;SDS011;10233;50.814;6.590;2023-07-31T04:03:48;6.20;;;2.40;;
20144;SDS011;10233;50.814;6.590;2023-07-31T04:04:48;3.73;;;2.43;;
20144;SDS011;10233;50.814;6.590;2023-07-31T04:05:49;5.53;;;2.47;;
20144;SDS011;10233;50.814;6.590;2023-07-31T04:06:49;5.60;;;2.55;;
20144;SDS011;10233;50.814;6.590;2023-07-31T04:07:49;4.50;;;2.30;;
20144;SDS011;10233;50.814;6.590;2023-07-31T04:08:50;5.53;;;2.60;;
20144;SDS011;10233;50.814;6.590;2023-07-31T04:09:50;6.10;;;2.70;;
20144;SDS011;10233;50.814;6.590;2023-07-31T04:10:51;6.40;;;2.83;;
20144;SDS011;10233;50.814;6.590;2023-07-31T04:11:51;3.63;;;2.13;;
20144;SDS011;10233;50.814;6.590;2023-07-31T04:12:52;4.75;;;2.60;;
20144;SDS011;10233;50.814;6.590;2023-07-31T04:13:52;5.73;;;2.80;;
20144;SDS011;10233;50.814;6.590;2023-07-31T04:14:53;5.75;;;3.00;;
20144;SDS011;10233;50.814;6.590;2023-07-31T04:15:53;4.10;;;2.17;;
20144;SDS011;10233;50.814;6.590;2023-07-31T04:16:54;4.80;;;2.45;;
20144;SDS011;10233;50.814;6.590;2023-07-31T04:17:54;5.13;;;2.30;;
20144;SDS011;10233;50.814;6.590;2023-07-31T04:18:55;6.53;;;2.63;;
20144;SDS011;10233;50.814;6.590;2023-07-31T04:19:55;5.28;;;2.45;;
20144;SDS011;10233;50.814;6.590;2023-07-31T04:20:56;4.43;;;2.70;;
20144;SDS011;10233;50.814;6.590;2023-07-31T04:21:58;3.92;;;2.45;;
20144;SDS011;10233;50.814;6.590;2023-07-31T04:22:59;6.82;;;2.60;;
20144;SDS011;10233;50.814;6.590;2023-07-31T04:23:59;5.13;;;2.50;;
20144;SDS011;10233;50.814;6.590;2023-07-31T04:24:59;4.77;;;2.40;;
20144;SDS011;10233;50.814;6.590;2023-07-31T04:26:00;5.47;;;2.40;;
20144;SDS011;10233;50.814;6.590;2023-07-31T04:27:00;7.20;;;2.60;;
20144;SDS011;10233;50.814;6.590;2023-07-31T04:28:01;5.50;;;2.40;;
20144;SDS011;10233;50.814;6.590;2023-07-31T04:29:02;4.82;;;2.80;;
20144;SDS011;10233;50.814;6.590;2023-07-31T04:30:02;5.23;;;2.60;;
20144;SDS011;10233;50.814;6.590;2023-07-31T04:31:04;5.32;;;2.60;;
20144;SDS011;10233;50.814;6.590;2023-07-31T04:32:04;3.93;;;2.17;;
20144;SDS011;10233;50.814;6.590;2023-07-31T04:33:05;4.78;;;2.50;;
20144;SDS011;10233;50.814;6.590;2023-07-31T04:34:05;6.10;;;2.63;;
20144;SDS011;10233;50.814;6.590;2023-07-31T04:35:06;5.35;;;2.50;;
20144;SDS011;10233;50.814;6.590;2023-07-31T04:36:06;4.03;;;2.00;;
20144;SDS011;10233;50.814;6.590;2023-07-31T04:37:07;4.28;;;2.20;;
20144;SDS011;10233;50.814;6.590;2023-07-31T04:38:07;5.90;;;2.27;;
20144;SDS011;10233;50.814;6.590;2023-07-31T04:39:08;5.30;;;2.30;;
20144;SDS011;10233;50.814;6.590;2023-07-31T04:40:08;5.05;;;2.10;;
20144;SDS011;10233;50.814;6.590;2023-07-31T04:41:09;3.97;;;2.23;;
20144;SDS011;10233;50.814;6.590;2023-07-31T04:42:10;7.30;;;2.53;;
20144;SDS011;10233;50.814;6.590;2023-07-31T04:43:10;4.83;;;2.40;;
20144;SDS011;10233;50.814;6.590;2023-07-31T04:44:10;5.30;;;2.07;;
20144;SDS011;10233;50.814;6.590;2023-07-31T04:45:11;4.90;;;2.25;;
20144;SDS011;10233;50.814;6.590;2023-07-31T04:46:12;4.90;;;2.00;;
20144;SDS011;10233;50.814;6.590;2023-07-31T04:47:12;6.05;;;2.60;;
20144;SDS011;10233;50.814;6.590;2023-07-31T04:48:12;6.67;;;2.50;;
20144;SDS011;10233;50.814;6.590;2023-07-31T04:49:13;6.87;;;2.50;;
20144;SDS011;10233;50.814;6.590;2023-07-31T04:50:13;5.20;;;2.50;;
20144;SDS011;10233;50.814;6.590;2023-07-31T04:51:14;5.60;;;2.30;;
20144;SDS011;10233;50.814;6.590;2023-07-31T04:52:14;5.55;;;2.50;;
20144;SDS011;10233;50.814;6.590;2023-07-31T04:53:15;4.60;;;2.40;;
20144;SDS011;10233;50.814;6.590;2023-07-31T04:54:15;5.93;;;2.50;;
20144;SDS011;10233;50.814;6.590;2023-07-31T04:55:16;4.80;;;2.17;;
20144;SDS011;10233;50.814;6.590;2023-07-31T04:56:16;4.90;;;2.40;;
20144;SDS011;10233;50.814;6.590;2023-07-31T04:57:17;4.80;;;2.53;;
20144;SDS011;10233;50.814;6.590;2023-07-31T04:58:17;6.28;;;2.30;;
20144;SDS011;10233;50.814;6.590;2023-07-31T04:59:18;3.83;;;2.00;;
20144;SDS011;10233;50.814;6.590;2023-07-31T05:00:18;4.20;;;2.10;;
20144;SDS011;10233;50.814;6.590;2023-07-31T05:01:19;3.85;;;2.30;;
20144;SDS011;10233;50.814;6.590;2023-07-31T05:02:19;4.87;;;2.30;;
20144;SDS011;10233;50.814;6.590;2023-07-31T05:03:19;4.63;;;2.40;;
20144;SDS011;10233;50.814;6.590;2023-07-31T05:04:20;5.15;;;2.47;;
20144;SDS011;10233;50.814;6.590;2023-07-31T05:05:20;5.47;;;2.33;;
20144;SDS011;10233;50.814;6.590;2023-07-31T05:06:21;4.05;;;2.10;;
20144;SDS011;10233;50.814;6.590;2023-07-31T05:07:21;4.43;;;2.50;;
20144;SDS011;10233;50.814;6.590;2023-07-31T05:08:22;3.90;;;2.13;;
20144;SDS011;10233;50.814;6.590;2023-07-31T05:09:22;6.18;;;2.40;;
20144;SDS011;10233;50.814;6.590;2023-07-31T05:10:23;6.43;;;2.50;;
20144;SDS011;10233;50.814;6.590;2023-07-31T05:11:23;3.77;;;2.20;;
20144;SDS011;10233;50.814;6.590;2023-07-31T05:12:24;5.38;;;2.00;;
20144;SDS011;10233;50.814;6.590;2023-07-31T05:13:24;5.70;;;2.23;;
20144;SDS011;10233;50.814;6.590;2023-07-31T05:14:25;5.37;;;2.17;;
20144;SDS011;10233;50.814;6.590;2023-07-31T05:15:26;6.78;;;2.55;;
20144;SDS011;10233;50.814;6.590;2023-07-31T05:16:26;4.40;;;2.60;;
20144;SDS011;10233;50.814;6.590;2023-07-31T05:17:27;5.20;;;2.37;;
20144;SDS011;10233;50.814;6.590;2023-07-31T05:18:27;5.53;;;2.33;;
20144;SDS011;10233;50.814;6.590;2023-07-31T05:19:28;5.50;;;2.38;;
20144;SDS011;10233;50.814;6.590;2023-07-31T05:20:28;5.33;;;2.20;;
20144;SDS011;10233;50.814;6.590;2023-07-31T05:21:28;4.90;;;2.63;;
20144;SDS011;10233;50.814;6.590;2023-07-31T05:22:29;5.38;;;2.25;;
20144;SDS011;10233;50.814;6.590;2023-07-31T05:23:29;4.53;;;2.13;;
20144;SDS011;10233;50.814;6.590;2023-07-31T05:24:33;6.40;;;2.22;;
20144;SDS011;10233;50.814;6.590;2023-07-31T05:25:33;5.25;;;2.65;;
20144;SDS011;10233;50.814;6.590;2023-07-31T05:26:34;4.43;;;2.13;;
20144;SDS011;10233;50.814;6.590;2023-07-31T05:27:34;3.73;;;2.40;;
20144;SDS011;10233;50.814;6.590;2023-07-31T05:28:35;5.13;;;2.60;;
20144;SDS011;10233;50.814;6.590;2023-07-31T05:29:36;4.30;;;1.90;;
20144;SDS011;10233;50.814;6.590;2023-07-31T05:30:37;3.95;;;2.10;;
20144;SDS011;10233;50.814;6.590;2023-07-31T05:31:37;5.55;;;2.33;;
20144;SDS011;10233;50.814;6.590;2023-07-31T05:32:38;4.28;;;1.90;;
20144;SDS011;10233;50.814;6.590;2023-07-31T05:33:39;4.40;;;2.00;;
20144;SDS011;10233;50.814;6.590;2023-07-31T05:34:39;5.00;;;2.40;;
20144;SDS011;10233;50.814;6.590;2023-07-31T05:35:39;3.67;;;2.10;;
20144;SDS011;10233;50.814;6.590;2023-07-31T05:36:40;4.63;;;2.27;;
20144;SDS011;10233;50.814;6.590;2023-07-31T05:37:40;3.17;;;2.00;;
20144;SDS011;10233;50.814;6.590;2023-07-31T05:38:41;4.70;;;2.10;;
20144;SDS011;10233;50.814;6.590;2023-07-31T05:39:43;3.97;;;2.17;;
20144;SDS011;10233;50.814;6.590;2023-07-31T05:40:44;4.85;;;2.38;;
20144;SDS011;10233;50.814;6.590;2023-07-31T05:41:44;6.40;;;2.13;;
20144;SDS011;10233;50.814;6.590;2023-07-31T05:42:45;5.18;;;2.42;;
20144;SDS011;10233;50.814;6.590;2023-07-31T05:43:46;3.83;;;1.97;;
20144;SDS011;10233;50.814;6.590;2023-07-31T05:44:46;3.50;;;2.17;;
20144;SDS011;10233;50.814;6.590;2023-07-31T05:45:47;4.40;;;2.10;;
20144;SDS011;10233;50.814;6.590;2023-07-31T05:46:47;6.20;;;2.10;;
20144;SDS011;10233;50.814;6.590;2023-07-31T05:47:48;3.78;;;1.92;;
20144;SDS011;10233;50.814;6.590;2023-07-31T05:48:48;6.63;;;2.30;;
20144;SDS011;10233;50.814;6.590;2023-07-31T05:49:49;5.67;;;2.50;;
20144;SDS011;10233;50.814;6.590;2023-07-31T05:50:51;5.07;;;2.00;;
20144;SDS011;10233;50.814;6.590;2023-07-31T05:51:52;6.20;;;2.33;;
20144;SDS011;10233;50.814;6.590;2023-07-31T05:52:52;5.25;;;2.22;;
20144;SDS011;10233;50.814;6.590;2023-07-31T05:53:53;6.40;;;2.30;;
20144;SDS011;10233;50.814;6.590;2023-07-31T05:54:53;4.80;;;2.20;;
20144;SDS011;10233;50.814;6.590;2023-07-31T05:55:54;5.60;;;2.08;;
20144;SDS011;10233;50.814;6.590;2023-07-31T05:56:54;4.83;;;2.10;;
20144;SDS011;10233;50.814;6.590;2023-07-31T05:57:55;4.72;;;2.03;;
20144;SDS011;10233;50.814;6.590;2023-07-31T05:58:55;3.83;;;2.23;;
20144;SDS011;10233;50.814;6.590;2023-07-31T05:59:57;5.10;;;2.00;;
20144;SDS011;10233;50.814;6.590;2023-07-31T06:00:57;4.80;;;2.20;;
20144;SDS011;10233;50.814;6.590;2023-07-31T06:01:58;7.60;;;2.70;;
20144;SDS011;10233;50.814;6.590;2023-07-31T06:02:59;4.03;;;2.22;;
20144;SDS011;10233;50.814;6.590;2023-07-31T06:03:59;4.93;;;2.20;;
20144;SDS011;10233;50.814;6.590;2023-07-31T06:05:00;5.82;;;2.42;;
20144;SDS011;10233;50.814;6.590;2023-07-31T06:06:01;4.63;;;2.17;;
20144;SDS011;10233;50.814;6.590;2023-07-31T06:07:01;5.67;;;2.13;;
20144;SDS011;10233;50.814;6.590;2023-07-31T06:08:03;6.47;;;2.50;;
20144;SDS011;10233;50.814;6.590;2023-07-31T06:09:03;5.43;;;2.37;;
20144;SDS011;10233;50.814;6.590;2023-07-31T06:10:04;4.95;;;2.50;;
20144;SDS011;10233;50.814;6.590;2023-07-31T06:11:06;4.50;;;2.22;;
20144;SDS011;10233;50.814;6.590;2023-07-31T06:12:08;4.75;;;2.40;;
20144;SDS011;10233;50.814;6.590;2023-07-31T06:13:09;5.23;;;2.47;;
20144;SDS011;10233;50.814;6.590;2023-07-31T06:14:09;5.47;;;2.67;;
20144;SDS011;10233;50.814;6.590;2023-07-31T06:15:10;4.47;;;2.30;;